createdAt,value
2022-08-18T00:01:15.912Z,26.52
2022-08-18T00:03:57.249Z,26.49
2022-08-18T00:06:30.247Z,26.49
2022-08-18T00:09:00.987Z,26.52
2022-08-18T00:11:41.726Z,26.55
2022-08-18T00:14:19.343Z,26.52
2022-08-18T00:16:52.818Z,26.50
2022-08-18T00:19:47.093Z,26.56
2022-08-18T00:22:14.671Z,26.55
2022-08-18T00:24:48.163Z,26.43
2022-08-18T00:27:26.146Z,26.39
2022-08-18T00:29:59.133Z,26.24
2022-08-18T00:32:30.521Z,26.25
2022-08-18T00:35:00.119Z,26.19
2022-08-18T00:37:29.792Z,26.22
2022-08-18T00:39:59.433Z,26.19
2022-08-18T00:42:32.190Z,26.03
2022-08-18T00:45:03.459Z,25.95
2022-08-18T00:47:43.089Z,26.02
2022-08-18T00:50:15.745Z,25.97
2022-08-18T00:52:50.974Z,25.84
2022-08-18T00:55:20.791Z,25.87
2022-08-18T00:57:55.042Z,25.87
2022-08-18T01:00:24.674Z,25.75
2022-08-18T01:02:56.174Z,25.73
2022-08-18T01:05:28.345Z,25.93
2022-08-18T01:07:58.155Z,25.82
2022-08-18T01:10:27.847Z,25.89
2022-08-18T01:13:00.817Z,25.75
2022-08-18T01:15:30.769Z,25.81
2022-08-18T01:18:13.487Z,25.94
2022-08-18T01:20:58.729Z,25.93
2022-08-18T01:23:30.934Z,25.78
2022-08-18T01:26:01.017Z,25.62
2022-08-18T01:28:30.753Z,25.68
2022-08-18T01:31:00.956Z,25.06
2022-08-18T01:33:32.582Z,24.67
2022-08-18T01:36:03.716Z,24.87
2022-08-18T01:38:35.922Z,25.01
2022-08-18T01:41:26.758Z,25.34
2022-08-18T01:43:57.174Z,25.54
2022-08-18T01:46:26.829Z,25.72
2022-08-18T01:48:58.689Z,25.73
2022-08-18T01:51:38.860Z,25.78
2022-08-18T01:54:13.576Z,25.89
2022-08-18T01:56:43.567Z,25.86
2022-08-18T01:59:15.179Z,25.77
2022-08-18T02:01:48.816Z,25.72
2022-08-18T02:04:35.117Z,25.76
2022-08-18T02:07:06.838Z,25.80
2022-08-18T02:09:38.764Z,25.82
2022-08-18T02:12:09.158Z,25.75
2022-08-18T02:14:39.084Z,25.76
2022-08-18T02:17:10.111Z,25.71
2022-08-18T02:19:40.941Z,25.63
2022-08-18T02:22:10.478Z,25.57
2022-08-18T02:24:42.740Z,25.58
2022-08-18T02:27:12.691Z,25.58
2022-08-18T02:29:42.305Z,25.63
2022-08-18T02:32:12.003Z,25.59
2022-08-18T02:34:42.802Z,25.54
2022-08-18T02:37:15.403Z,25.62
2022-08-18T02:39:48.002Z,25.66
2022-08-18T02:42:17.658Z,25.61
2022-08-18T02:44:47.293Z,25.71
2022-08-18T02:47:16.917Z,25.64
2022-08-18T02:49:46.483Z,25.47
2022-08-18T02:52:16.833Z,25.51
2022-08-18T02:54:49.519Z,25.48
2022-08-18T02:57:19.405Z,25.51
2022-08-18T02:59:49.018Z,25.57
2022-08-18T03:02:20.257Z,25.63
2022-08-18T03:04:51.369Z,25.65
2022-08-18T03:07:21.070Z,25.69
2022-08-18T03:09:53.382Z,25.73
2022-08-18T03:12:23.159Z,25.60
2022-08-18T03:14:52.787Z,25.55
2022-08-18T03:17:22.442Z,25.65
2022-08-18T03:19:52.803Z,25.73
2022-08-18T03:22:28.401Z,25.65
2022-08-18T03:25:03.232Z,25.60
2022-08-18T03:27:33.228Z,25.51
2022-08-18T03:30:03.826Z,25.40
2022-08-18T03:32:33.512Z,25.33
2022-08-18T03:35:03.098Z,25.40
2022-08-18T03:37:33.601Z,25.48
2022-08-18T03:40:06.611Z,25.45
2022-08-18T03:42:36.231Z,25.46
2022-08-18T03:45:13.273Z,25.46
2022-08-18T03:47:51.980Z,25.49
2022-08-18T03:50:25.636Z,25.47
2022-08-18T03:52:55.453Z,25.49
2022-08-18T03:55:27.797Z,25.30
2022-08-18T03:58:02.868Z,25.22
2022-08-18T04:00:33.755Z,25.15
2022-08-18T04:03:04.816Z,25.13
2022-08-18T04:05:35.283Z,25.17
2022-08-18T04:08:06.727Z,25.02
2022-08-18T04:10:38.949Z,25.05
2022-08-18T04:13:08.899Z,25.09
2022-08-18T04:15:39.519Z,25.02
2022-08-18T04:18:10.067Z,24.94
2022-08-18T04:20:59.440Z,24.98
2022-08-18T04:23:29.737Z,24.84
2022-08-18T04:26:19.072Z,24.88
2022-08-18T04:28:49.262Z,24.86
2022-08-18T04:31:23.733Z,24.85
2022-08-18T04:33:53.369Z,24.89
2022-08-18T04:36:22.990Z,25.00
2022-08-18T04:38:52.764Z,25.08
2022-08-18T04:41:29.547Z,24.97
2022-08-18T04:44:00.053Z,24.71
2022-08-18T04:46:29.845Z,24.47
2022-08-18T04:49:01.347Z,24.35
2022-08-18T04:52:36.483Z,24.24
2022-08-18T04:54:19.290Z,24.13
2022-08-18T04:56:51.454Z,24.11
2022-08-18T04:59:21.062Z,24.07
2022-08-18T05:01:50.803Z,24.04
2022-08-18T05:04:20.567Z,24.04
2022-08-18T05:06:50.306Z,24.11
2022-08-18T05:09:22.770Z,24.26
2022-08-18T05:11:55.578Z,24.42
2022-08-18T05:14:25.212Z,24.50
2022-08-18T05:16:54.778Z,24.56
2022-08-18T05:19:26.866Z,24.55
2022-08-18T05:21:59.575Z,24.64
2022-08-18T05:24:36.896Z,24.65
2022-08-18T05:27:10.212Z,24.78
2022-08-18T05:29:41.864Z,24.84
2022-08-18T05:32:30.512Z,24.88
2022-08-18T05:35:07.467Z,24.96
2022-08-18T05:37:40.715Z,24.98
2022-08-18T05:40:11.802Z,25.08
2022-08-18T05:42:44.192Z,25.06
2022-08-18T05:45:16.272Z,25.12
2022-08-18T05:47:45.912Z,25.14
2022-08-18T05:50:20.469Z,25.22
2022-08-18T05:52:53.626Z,25.11
2022-08-18T05:55:38.044Z,25.21
2022-08-18T05:58:13.685Z,25.20
2022-08-18T06:00:43.240Z,25.21
2022-08-18T06:03:16.256Z,25.15
2022-08-18T06:05:50.175Z,25.16
2022-08-18T06:08:20.079Z,25.13
2022-08-18T06:10:51.362Z,25.22
2022-08-18T06:13:23.528Z,25.15
2022-08-18T06:15:55.714Z,25.22
2022-08-18T06:18:40.399Z,25.21
2022-08-18T06:21:38.770Z,25.17
2022-08-18T06:24:13.061Z,25.18
2022-08-18T06:26:45.272Z,25.18
2022-08-18T06:29:25.805Z,25.23
2022-08-18T06:31:58.754Z,25.21
2022-08-18T06:34:32.868Z,25.22
2022-08-18T06:37:04.570Z,25.26
2022-08-18T06:39:38.643Z,25.30
2022-08-18T06:42:08.465Z,25.34
2022-08-18T06:44:42.635Z,25.31
2022-08-18T06:47:15.527Z,25.36
2022-08-18T06:49:48.460Z,25.44
2022-08-18T06:52:25.584Z,25.55
2022-08-18T06:54:55.782Z,25.65
2022-08-18T06:57:28.051Z,25.78
2022-08-18T07:00:01.557Z,25.78
2022-08-18T07:02:45.084Z,25.83
2022-08-18T07:05:22.940Z,25.73
2022-08-18T07:08:10.513Z,25.82
2022-08-18T07:10:41.262Z,25.83
2022-08-18T07:13:22.383Z,25.71
2022-08-18T07:15:54.700Z,25.78
2022-08-18T07:18:26.389Z,25.86
2022-08-18T07:20:57.374Z,25.90
2022-08-18T07:23:29.570Z,25.87
2022-08-18T07:26:08.749Z,25.96
2022-08-18T07:28:39.886Z,25.98
2022-08-18T07:31:17.751Z,26.08
2022-08-18T07:33:51.459Z,26.05
2022-08-18T07:36:21.670Z,26.01
2022-08-18T07:38:54.601Z,25.99
2022-08-18T07:41:26.172Z,26.11
2022-08-18T07:44:01.878Z,26.04
2022-08-18T07:46:36.061Z,26.08
2022-08-18T07:49:06.488Z,26.08
2022-08-18T07:51:44.063Z,26.14
2022-08-18T07:54:47.268Z,26.13
2022-08-18T07:57:11.003Z,26.05
2022-08-18T07:59:44.770Z,26.10
2022-08-18T08:02:27.521Z,25.96
2022-08-18T08:05:02.804Z,25.89
2022-08-18T08:07:33.191Z,25.98
2022-08-18T08:10:23.427Z,25.91
2022-08-18T08:13:06.105Z,25.83
2022-08-18T08:15:42.225Z,25.86
2022-08-18T08:18:17.361Z,25.85
2022-08-18T08:20:49.031Z,25.89
2022-08-18T08:23:24.697Z,25.84
2022-08-18T08:29:35.949Z,25.92
2022-08-18T08:32:07.170Z,25.96
2022-08-18T08:34:42.519Z,26.04
2022-08-18T08:37:23.865Z,26.01
2022-08-18T08:39:57.934Z,26.05
2022-08-18T08:42:34.500Z,26.14
2022-08-18T08:45:09.658Z,26.15
2022-08-18T08:47:41.397Z,26.29
2022-08-18T08:53:35.818Z,26.21
2022-08-18T08:56:09.227Z,26.32
2022-08-18T08:58:56.452Z,26.38
2022-08-18T09:01:29.632Z,26.41
2022-08-18T09:04:00.565Z,26.47
2022-08-18T09:06:32.914Z,26.57
2022-08-18T09:09:16.571Z,26.44
2022-08-18T09:11:57.059Z,26.49
2022-08-18T09:14:50.116Z,26.48
2022-08-18T09:17:34.201Z,26.52
2022-08-18T09:20:27.653Z,26.52
2022-08-18T09:23:01.905Z,26.48
2022-08-18T09:25:52.180Z,26.49
2022-08-18T09:28:23.460Z,26.55
2022-08-18T09:31:12.541Z,26.56
2022-08-18T09:33:53.585Z,26.70
2022-08-18T09:36:30.205Z,26.69
2022-08-18T09:39:13.285Z,26.70
2022-08-18T09:41:52.579Z,26.70
2022-08-18T09:44:52.414Z,26.72
2022-08-18T09:47:51.817Z,26.79
2022-08-18T09:50:38.946Z,26.85
2022-08-18T09:53:19.838Z,26.88
2022-08-18T09:56:04.812Z,26.96
2022-08-18T09:58:58.765Z,27.00
2022-08-18T10:01:40.173Z,27.00
2022-08-18T10:04:48.510Z,27.06
2022-08-18T10:07:38.843Z,27.13
2022-08-18T10:13:18.253Z,27.06
2022-08-18T10:16:10.219Z,27.06
2022-08-18T10:18:56.081Z,27.12
2022-08-18T10:21:31.172Z,27.23
2022-08-18T10:24:29.840Z,27.24
2022-08-18T10:27:13.249Z,27.28
2022-08-18T10:29:56.793Z,27.23
2022-08-18T10:32:54.540Z,27.30
2022-08-18T10:35:59.114Z,27.49
2022-08-18T10:38:41.242Z,27.60
2022-08-18T10:41:27.219Z,27.63
2022-08-18T10:44:00.567Z,27.79
2022-08-18T10:46:33.151Z,27.85
2022-08-18T10:49:18.326Z,27.97
2022-08-18T10:51:59.971Z,27.99
2022-08-18T10:54:35.147Z,28.18
2022-08-18T10:57:23.152Z,28.30
2022-08-18T10:59:55.963Z,28.49
2022-08-18T11:02:41.171Z,28.64
2022-08-18T11:05:15.119Z,28.62
2022-08-18T11:07:46.883Z,28.67
2022-08-18T11:10:29.844Z,28.56
2022-08-18T11:13:07.516Z,28.65
2022-08-18T11:15:45.863Z,28.62
2022-08-18T11:18:24.283Z,27.97
2022-08-18T11:20:56.508Z,27.49
2022-08-18T11:23:26.317Z,27.73
2022-08-18T11:25:57.465Z,28.00
2022-08-18T11:28:31.761Z,28.08
2022-08-18T11:31:02.084Z,28.13
2022-08-18T11:33:37.671Z,28.27
2022-08-18T11:36:10.305Z,28.59
2022-08-18T11:38:42.078Z,28.99
2022-08-18T11:41:17.812Z,29.40
2022-08-18T11:43:48.023Z,29.74
2022-08-18T11:46:29.625Z,29.93
2022-08-18T11:49:01.379Z,29.89
2022-08-18T11:51:34.995Z,29.77
2022-08-18T11:54:05.803Z,29.58
2022-08-18T11:56:35.659Z,29.69
2022-08-18T11:59:06.733Z,29.86
2022-08-18T12:01:42.140Z,29.77
2022-08-18T12:04:20.736Z,29.68
2022-08-18T12:07:06.191Z,29.73
2022-08-18T12:12:35.852Z,30.17
2022-08-18T12:15:10.493Z,30.24
2022-08-18T12:17:52.612Z,29.40
2022-08-18T12:20:22.825Z,28.70
2022-08-18T12:22:55.370Z,28.61
2022-08-18T12:25:25.963Z,28.94
2022-08-18T12:27:55.779Z,28.18
2022-08-18T12:30:25.419Z,27.81
2022-08-18T12:33:05.647Z,28.37
2022-08-18T12:35:41.796Z,29.03
2022-08-18T12:38:17.943Z,29.08
2022-08-18T12:40:47.862Z,28.71
2022-08-18T12:43:17.506Z,28.95
2022-08-18T12:45:47.124Z,29.40
2022-08-18T12:48:16.781Z,29.66
2022-08-18T12:50:54.369Z,29.77
2022-08-18T12:53:29.483Z,29.85
2022-08-18T12:56:10.665Z,29.94
2022-08-18T12:58:41.375Z,30.09
2022-08-18T13:01:11.077Z,30.10
2022-08-18T13:06:30.921Z,29.02
2022-08-18T13:09:03.175Z,29.34
2022-08-18T13:11:46.175Z,29.40
2022-08-18T13:14:16.150Z,29.40
2022-08-18T13:16:54.955Z,29.45
2022-08-18T13:19:24.764Z,29.49
2022-08-18T13:22:01.761Z,29.50
2022-08-18T13:24:35.798Z,29.65
2022-08-18T13:27:18.394Z,29.79
2022-08-18T13:29:52.736Z,29.93
2022-08-18T13:32:22.491Z,30.08
2022-08-18T13:34:52.135Z,30.15
2022-08-18T13:37:26.739Z,30.25
2022-08-18T13:40:00.280Z,30.52
2022-08-18T13:42:50.304Z,30.84
2022-08-18T13:45:26.221Z,31.02
2022-08-18T13:47:58.309Z,31.11
2022-08-18T13:50:29.822Z,31.07
2022-08-18T13:53:01.090Z,30.89
2022-08-18T13:55:33.360Z,30.83
2022-08-18T13:58:05.126Z,30.75
2022-08-18T14:00:47.466Z,30.96
2022-08-18T14:03:20.402Z,30.99
2022-08-18T14:06:02.962Z,31.25
2022-08-18T14:08:36.714Z,31.36
2022-08-18T14:11:12.601Z,31.53
2022-08-18T14:13:43.802Z,31.64
2022-08-18T14:16:18.779Z,31.54
2022-08-18T14:19:09.724Z,31.35
2022-08-18T14:21:53.670Z,31.30
2022-08-18T14:24:36.726Z,31.06
2022-08-18T14:27:09.248Z,30.78
2022-08-18T14:29:46.683Z,30.86
2022-08-18T14:32:18.059Z,30.96
2022-08-18T14:35:00.296Z,31.22
2022-08-18T14:37:30.783Z,31.26
2022-08-18T14:40:04.035Z,31.23
2022-08-18T14:42:41.901Z,31.22
2022-08-18T14:45:34.084Z,30.96
2022-08-18T14:48:07.604Z,30.70
2022-08-18T14:50:48.962Z,30.58
2022-08-18T14:53:20.328Z,30.55
2022-08-18T14:55:52.182Z,30.31
2022-08-18T14:58:26.577Z,30.27
2022-08-18T15:00:56.587Z,30.10
2022-08-18T15:03:28.244Z,30.13
2022-08-18T15:06:04.489Z,30.03
2022-08-18T15:08:35.757Z,30.16
2022-08-18T15:11:06.197Z,30.37
2022-08-18T15:13:46.575Z,30.52
2022-08-18T15:16:16.304Z,30.46
2022-08-18T15:18:46.320Z,30.61
2022-08-18T15:21:38.590Z,30.68
2022-08-18T15:24:21.697Z,30.61
2022-08-18T15:26:56.839Z,30.70
2022-08-18T15:29:30.965Z,30.57
2022-08-18T15:32:06.124Z,30.24
2022-08-18T15:34:46.392Z,30.20
2022-08-18T15:37:19.453Z,30.12
2022-08-18T15:39:51.823Z,29.98
2022-08-18T15:42:25.524Z,29.97
2022-08-18T15:44:59.715Z,29.94
2022-08-18T15:47:42.707Z,30.06
2022-08-18T15:50:25.295Z,30.12
2022-08-18T15:52:58.062Z,30.10
2022-08-18T15:55:29.823Z,30.05
2022-08-18T15:58:11.153Z,30.05
2022-08-18T16:00:46.666Z,29.80
2022-08-18T16:03:17.529Z,29.59
2022-08-18T16:05:52.504Z,29.48
2022-08-18T16:08:23.125Z,29.47
2022-08-18T16:10:52.871Z,29.47
2022-08-18T16:13:22.530Z,29.48
2022-08-18T16:15:54.683Z,29.54
2022-08-18T16:18:24.598Z,29.48
2022-08-18T16:20:56.618Z,29.47
2022-08-18T16:23:26.611Z,29.40
2022-08-18T16:25:56.362Z,29.25
2022-08-18T16:28:34.568Z,29.18
2022-08-18T16:31:07.773Z,29.12
2022-08-18T16:33:37.428Z,29.10
2022-08-18T16:36:08.006Z,28.98
2022-08-18T16:38:38.391Z,28.88
2022-08-18T16:41:13.578Z,28.92
2022-08-18T16:43:44.467Z,29.01
2022-08-18T16:46:18.008Z,29.11
2022-08-18T16:48:48.440Z,28.94
2022-08-18T16:51:18.872Z,28.94
2022-08-18T16:53:49.632Z,28.82
2022-08-18T16:56:21.361Z,28.80
2022-08-18T16:59:03.522Z,28.82
2022-08-18T17:01:50.789Z,28.85
2022-08-18T17:04:22.552Z,28.91
2022-08-18T17:06:52.595Z,28.87
2022-08-18T17:09:22.477Z,28.65
2022-08-18T17:11:52.521Z,28.60
2022-08-18T17:14:22.417Z,28.65
2022-08-18T17:16:55.412Z,28.59
2022-08-18T17:19:25.252Z,28.61
2022-08-18T17:21:54.872Z,28.57
2022-08-18T17:24:31.710Z,28.49
2022-08-18T17:27:21.191Z,28.51
2022-08-18T17:30:03.360Z,28.36
2022-08-18T17:32:40.567Z,28.38
2022-08-18T17:35:13.181Z,28.42
2022-08-18T17:37:43.798Z,28.37
2022-08-18T17:40:16.305Z,28.25
2022-08-18T17:42:47.225Z,28.29
2022-08-18T17:45:22.188Z,28.21
2022-08-18T17:47:57.539Z,28.32
2022-08-18T17:50:41.514Z,28.37
2022-08-18T17:53:11.874Z,28.29
2022-08-18T17:55:44.160Z,28.30
2022-08-18T17:58:18.648Z,28.33
2022-08-18T18:00:48.341Z,28.19
2022-08-18T18:03:20.543Z,28.17
2022-08-18T18:05:52.465Z,28.12
2022-08-18T18:08:22.184Z,28.06
2022-08-18T18:11:07.864Z,28.10
2022-08-18T18:13:40.477Z,28.03
2022-08-18T18:16:23.396Z,28.02
2022-08-18T18:19:02.832Z,27.95
2022-08-18T18:22:00.651Z,27.99
2022-08-18T18:24:31.554Z,27.92
2022-08-18T18:27:01.227Z,27.89
2022-08-18T18:29:38.105Z,27.93
2022-08-18T18:32:10.843Z,27.93
2022-08-18T18:34:46.938Z,27.66
2022-08-18T18:37:26.974Z,27.47
2022-08-18T18:40:00.329Z,27.33
2022-08-18T18:42:31.640Z,27.27
2022-08-18T18:45:02.509Z,27.26
2022-08-18T18:47:54.548Z,27.25
2022-08-18T18:50:31.114Z,27.35
2022-08-18T18:53:08.521Z,27.45
2022-08-18T18:55:40.252Z,27.41
2022-08-18T18:58:15.715Z,27.45
2022-08-18T19:00:54.173Z,27.42
2022-08-18T19:03:27.495Z,27.45
2022-08-18T19:06:10.039Z,27.47
2022-08-18T19:08:42.236Z,27.45
2022-08-18T19:11:18.053Z,27.45
2022-08-18T19:13:49.454Z,27.44
2022-08-18T20:35:41.131Z,26.53
2022-08-18T20:38:17.904Z,26.55
2022-08-18T20:40:48.481Z,26.52
2022-08-18T20:43:29.562Z,26.53
2022-08-18T20:46:21.111Z,26.52
2022-08-18T20:49:06.252Z,26.52
2022-08-18T20:51:42.818Z,26.49
2022-08-18T20:54:29.991Z,26.48
2022-08-18T20:57:02.331Z,26.51
2022-08-18T20:59:33.340Z,26.53
2022-08-18T21:02:04.614Z,26.57
2022-08-18T21:04:42.831Z,26.61
2022-08-18T21:07:35.879Z,26.59
2022-08-18T21:10:12.986Z,26.53
2022-08-18T21:12:52.057Z,26.56
2022-08-18T21:15:24.460Z,26.65
2022-08-18T21:18:00.543Z,26.52
2022-08-18T21:20:30.463Z,26.43
2022-08-18T21:23:08.406Z,26.29
2022-08-18T21:25:38.547Z,26.25
2022-08-18T21:28:08.463Z,26.22
2022-08-18T21:30:38.367Z,26.18
2022-08-18T21:33:21.253Z,26.27
2022-08-18T21:35:50.971Z,26.25
2022-08-18T21:38:32.726Z,26.25
2022-08-18T21:41:10.212Z,26.25
2022-08-18T21:43:49.246Z,26.16
2022-08-18T21:46:25.351Z,26.05
2022-08-18T21:48:56.584Z,26.01
2022-08-18T21:51:28.936Z,25.96
2022-08-18T21:54:01.522Z,25.97
2022-08-18T21:56:33.151Z,26.00
2022-08-18T21:59:11.808Z,25.96
2022-08-18T22:01:49.667Z,25.92
2022-08-18T22:04:24.363Z,25.92
2022-08-18T22:06:55.243Z,25.90
2022-08-18T22:09:40.227Z,25.92
2022-08-18T22:12:39.638Z,25.91
2022-08-18T22:15:10.507Z,25.89
2022-08-18T22:17:45.076Z,25.92
2022-08-18T22:20:53.777Z,25.88
2022-08-18T22:23:50.903Z,25.84
2022-08-18T22:26:26.711Z,25.81
2022-08-18T22:28:59.887Z,25.77
2022-08-18T22:31:30.994Z,25.78
2022-08-18T22:34:07.418Z,25.78
2022-08-18T22:36:40.055Z,25.79
2022-08-18T22:39:11.186Z,25.73
2022-08-18T22:41:46.314Z,25.66
2022-08-18T22:44:16.370Z,25.62
2022-08-18T22:46:46.219Z,25.52
2022-08-18T22:49:15.800Z,25.56
2022-08-18T22:51:45.486Z,25.50
2022-08-18T22:54:15.066Z,25.52
2022-08-18T22:56:54.092Z,25.49
2022-08-18T22:59:27.539Z,25.49
2022-08-18T23:01:58.310Z,25.45
2022-08-18T23:04:28.113Z,25.46
2022-08-18T23:06:59.083Z,25.51
2022-08-18T23:09:30.538Z,25.49
2022-08-18T23:12:05.230Z,25.49
2022-08-18T23:14:34.833Z,25.54
2022-08-18T23:17:05.325Z,25.51
2022-08-18T23:19:35.024Z,25.54
2022-08-18T23:22:05.082Z,25.57
2022-08-18T23:24:34.747Z,25.59
2022-08-18T23:27:08.805Z,25.60
2022-08-18T23:29:39.862Z,25.55
2022-08-18T23:32:09.901Z,25.57
2022-08-18T23:34:39.567Z,25.53
2022-08-18T23:37:09.715Z,25.48
2022-08-18T23:39:41.856Z,25.50
2022-08-18T23:42:16.586Z,25.41
2022-08-18T23:44:47.314Z,25.42
2022-08-18T23:47:21.160Z,25.49
2022-08-18T23:49:51.578Z,25.48
2022-08-18T23:52:21.417Z,25.43
2022-08-18T23:54:51.012Z,25.42
2022-08-18T23:57:23.167Z,25.41
2022-08-18T23:59:52.793Z,25.42
